This is the latest recevied weather packets stored in our database for station/object OM6ABF-11. If no packets are shown the sender has not sent any weather packets the latest 10 day(s).
| Time | Temp. | Humidity | Pressure | Rain* | Wind** | Luminosity | Snow |
|---|---|---|---|---|---|---|---|
| 1777776469 | 1.11° C | 82% | 1023.3 hPa | - | - | - | - |
| 1777775569 | 1.67° C | 81% | 1023.4 hPa | - | - | - | - |
| 1777774670 | 1.67° C | 80% | 1023.4 hPa | - | - | - | - |
| 1777773770 | 2.22° C | 79% | 1023.2 hPa | - | - | - | - |
| 1777772872 | 2.78° C | 76% | 1023.2 hPa | - | - | - | - |
| 1777771973 | 3.33° C | 76% | 1023.1 hPa | - | - | - | - |
| 1777771073 | 3.33° C | 75% | 1023 hPa | - | - | - | - |
| 1777770173 | 3.89° C | 73% | 1023 hPa | - | - | - | - |
| 1777769275 | 3.89° C | 74% | 1022.9 hPa | - | - | - | - |
| 1777768377 | 4.44° C | 72% | 1022.9 hPa | - | - | - | - |
| 1777767478 | 4.44° C | 71% | 1022.9 hPa | - | - | - | - |
| 1777766579 | 5.56° C | 69% | 1022.8 hPa | - | - | - | - |
| 1777765679 | 5.56° C | 68% | 1022.9 hPa | - | - | - | - |
| 1777764780 | 6.11° C | 65% | 1022.9 hPa | - | - | - | - |
| 1777763881 | 6.67° C | 63% | 1022.7 hPa | - | - | - | - |
| 1777762981 | 7.78° C | 61% | 1022.8 hPa | - | - | - | - |
| 1777761182 | 7.78° C | 61% | 1022.8 hPa | - | - | - | - |
| 1777760282 | 7.78° C | 56% | 1022.9 hPa | - | - | - | - |
| 1777759383 | 7.22° C | 59% | 1022.9 hPa | - | - | - | - |
| 1777758483 | 7.78° C | 57% | 1022.8 hPa | - | - | - | - |
| 1777757584 | 7.78° C | 57% | 1022.8 hPa | - | - | - | - |
| 1777756685 | 8.33° C | 56% | 1022.6 hPa | - | - | - | - |
| 1777755788 | 8.89° C | 54% | 1022.5 hPa | - | - | - | - |
| 1777754889 | 10° C | 48% | 1022.4 hPa | - | - | - | - |
| 1777753990 | 10° C | 49% | 1022.3 hPa | - | - | - | - |
* Rain since midnight (hover to see other rain measurements)
** Current wind speed in m/s (hover to see current wind gust speed)